sensor_id;sensor_type;location;lat;lon;timestamp;P1;durP1;ratioP1;P2;durP2;ratioP2
67108;SDS011;54027;50.786;7.058;2023-06-14T00:02:05;11.75;;;5.82;;
67108;SDS011;54027;50.786;7.058;2023-06-14T00:04:33;8.75;;;5.22;;
67108;SDS011;54027;50.786;7.058;2023-06-14T00:06:59;7.93;;;4.85;;
67108;SDS011;54027;50.786;7.058;2023-06-14T00:09:25;6.85;;;4.75;;
67108;SDS011;54027;50.786;7.058;2023-06-14T00:11:50;11.55;;;5.70;;
67108;SDS011;54027;50.786;7.058;2023-06-14T00:14:16;6.38;;;5.13;;
67108;SDS011;54027;50.786;7.058;2023-06-14T00:16:41;6.55;;;4.80;;
67108;SDS011;54027;50.786;7.058;2023-06-14T00:19:07;7.82;;;5.18;;
67108;SDS011;54027;50.786;7.058;2023-06-14T00:21:35;8.10;;;4.68;;
67108;SDS011;54027;50.786;7.058;2023-06-14T00:24:01;6.18;;;5.00;;
67108;SDS011;54027;50.786;7.058;2023-06-14T00:26:27;9.02;;;5.28;;
67108;SDS011;54027;50.786;7.058;2023-06-14T00:28:53;6.97;;;4.85;;
67108;SDS011;54027;50.786;7.058;2023-06-14T00:31:19;7.60;;;5.68;;
67108;SDS011;54027;50.786;7.058;2023-06-14T00:33:44;6.68;;;5.22;;
67108;SDS011;54027;50.786;7.058;2023-06-14T00:36:10;7.18;;;5.60;;
67108;SDS011;54027;50.786;7.058;2023-06-14T00:38:35;5.70;;;4.63;;
67108;SDS011;54027;50.786;7.058;2023-06-14T00:41:01;6.72;;;4.88;;
67108;SDS011;54027;50.786;7.058;2023-06-14T00:43:26;6.30;;;5.18;;
67108;SDS011;54027;50.786;7.058;2023-06-14T00:45:51;6.95;;;5.43;;
67108;SDS011;54027;50.786;7.058;2023-06-14T00:48:17;5.82;;;4.50;;
67108;SDS011;54027;50.786;7.058;2023-06-14T00:50:43;5.57;;;4.43;;
67108;SDS011;54027;50.786;7.058;2023-06-14T00:53:10;5.80;;;4.70;;
67108;SDS011;54027;50.786;7.058;2023-06-14T00:55:40;6.25;;;5.18;;
67108;SDS011;54027;50.786;7.058;2023-06-14T00:58:06;5.75;;;4.75;;
67108;SDS011;54027;50.786;7.058;2023-06-14T01:00:31;9.02;;;5.60;;
67108;SDS011;54027;50.786;7.058;2023-06-14T01:02:56;8.50;;;6.20;;
67108;SDS011;54027;50.786;7.058;2023-06-14T01:05:22;7.70;;;5.57;;
67108;SDS011;54027;50.786;7.058;2023-06-14T01:13:32;5.65;;;5.05;;
67108;SDS011;54027;50.786;7.058;2023-06-14T01:15:59;10.65;;;5.03;;
67108;SDS011;54027;50.786;7.058;2023-06-14T01:18:27;6.25;;;5.07;;
67108;SDS011;54027;50.786;7.058;2023-06-14T01:20:54;7.13;;;5.22;;
67108;SDS011;54027;50.786;7.058;2023-06-14T01:23:21;6.32;;;5.10;;
67108;SDS011;54027;50.786;7.058;2023-06-14T01:25:48;6.93;;;4.95;;
67108;SDS011;54027;50.786;7.058;2023-06-14T01:28:18;7.28;;;5.03;;
67108;SDS011;54027;50.786;7.058;2023-06-14T01:30:47;6.78;;;5.40;;
67108;SDS011;54027;50.786;7.058;2023-06-14T01:33:19;7.95;;;6.03;;
67108;SDS011;54027;50.786;7.058;2023-06-14T01:35:46;8.05;;;5.40;;
67108;SDS011;54027;50.786;7.058;2023-06-14T01:38:13;6.50;;;5.30;;
67108;SDS011;54027;50.786;7.058;2023-06-14T01:40:40;8.02;;;5.45;;
67108;SDS011;54027;50.786;7.058;2023-06-14T01:43:09;5.97;;;5.13;;
67108;SDS011;54027;50.786;7.058;2023-06-14T01:45:36;7.95;;;5.95;;
67108;SDS011;54027;50.786;7.058;2023-06-14T01:48:03;7.82;;;5.72;;
67108;SDS011;54027;50.786;7.058;2023-06-14T01:50:30;6.75;;;5.72;;
67108;SDS011;54027;50.786;7.058;2023-06-14T01:52:56;8.20;;;6.35;;
67108;SDS011;54027;50.786;7.058;2023-06-14T01:55:21;7.03;;;5.97;;
67108;SDS011;54027;50.786;7.058;2023-06-14T01:57:47;6.63;;;5.28;;
67108;SDS011;54027;50.786;7.058;2023-06-14T02:00:13;8.70;;;5.53;;
67108;SDS011;54027;50.786;7.058;2023-06-14T02:02:39;7.78;;;5.75;;
67108;SDS011;54027;50.786;7.058;2023-06-14T02:05:05;7.32;;;5.00;;
67108;SDS011;54027;50.786;7.058;2023-06-14T02:07:31;6.65;;;5.28;;
67108;SDS011;54027;50.786;7.058;2023-06-14T02:09:56;5.57;;;5.00;;
67108;SDS011;54027;50.786;7.058;2023-06-14T02:12:22;6.32;;;5.00;;
67108;SDS011;54027;50.786;7.058;2023-06-14T02:14:47;6.15;;;4.97;;
67108;SDS011;54027;50.786;7.058;2023-06-14T02:17:13;8.10;;;5.45;;
67108;SDS011;54027;50.786;7.058;2023-06-14T02:19:39;8.75;;;6.25;;
67108;SDS011;54027;50.786;7.058;2023-06-14T02:22:04;7.28;;;5.65;;
67108;SDS011;54027;50.786;7.058;2023-06-14T02:24:29;14.85;;;6.55;;
67108;SDS011;54027;50.786;7.058;2023-06-14T02:26:55;7.60;;;5.30;;
67108;SDS011;54027;50.786;7.058;2023-06-14T02:29:20;9.32;;;6.07;;
67108;SDS011;54027;50.786;7.058;2023-06-14T02:31:46;8.60;;;5.55;;
67108;SDS011;54027;50.786;7.058;2023-06-14T02:34:13;7.78;;;5.70;;
67108;SDS011;54027;50.786;7.058;2023-06-14T02:36:39;7.20;;;6.18;;
67108;SDS011;54027;50.786;7.058;2023-06-14T02:39:07;8.35;;;6.03;;
67108;SDS011;54027;50.786;7.058;2023-06-14T02:41:34;9.25;;;5.93;;
67108;SDS011;54027;50.786;7.058;2023-06-14T02:44:00;7.55;;;6.32;;
67108;SDS011;54027;50.786;7.058;2023-06-14T02:46:25;7.90;;;6.28;;
67108;SDS011;54027;50.786;7.058;2023-06-14T02:48:50;6.70;;;6.00;;
67108;SDS011;54027;50.786;7.058;2023-06-14T02:51:16;9.55;;;6.30;;
67108;SDS011;54027;50.786;7.058;2023-06-14T02:53:41;10.40;;;6.03;;
67108;SDS011;54027;50.786;7.058;2023-06-14T02:56:06;8.25;;;6.15;;
67108;SDS011;54027;50.786;7.058;2023-06-14T02:58:31;9.50;;;6.60;;
67108;SDS011;54027;50.786;7.058;2023-06-14T03:00:58;7.97;;;5.88;;
67108;SDS011;54027;50.786;7.058;2023-06-14T03:03:28;5.50;;;4.93;;
67108;SDS011;54027;50.786;7.058;2023-06-14T03:05:54;7.57;;;5.80;;
67108;SDS011;54027;50.786;7.058;2023-06-14T03:08:20;7.65;;;4.85;;
67108;SDS011;54027;50.786;7.058;2023-06-14T03:10:45;6.30;;;5.30;;
67108;SDS011;54027;50.786;7.058;2023-06-14T03:13:15;8.70;;;6.43;;
67108;SDS011;54027;50.786;7.058;2023-06-14T03:15:47;9.57;;;6.88;;
67108;SDS011;54027;50.786;7.058;2023-06-14T03:18:15;10.13;;;6.95;;
67108;SDS011;54027;50.786;7.058;2023-06-14T03:20:44;7.65;;;6.20;;
67108;SDS011;54027;50.786;7.058;2023-06-14T03:23:10;8.45;;;5.55;;
67108;SDS011;54027;50.786;7.058;2023-06-14T03:25:36;7.95;;;5.70;;
67108;SDS011;54027;50.786;7.058;2023-06-14T03:28:03;8.98;;;6.30;;
67108;SDS011;54027;50.786;7.058;2023-06-14T03:30:30;6.60;;;5.50;;
67108;SDS011;54027;50.786;7.058;2023-06-14T03:32:56;11.05;;;5.75;;
67108;SDS011;54027;50.786;7.058;2023-06-14T03:35:22;8.85;;;6.50;;
67108;SDS011;54027;50.786;7.058;2023-06-14T03:37:48;6.55;;;5.72;;
67108;SDS011;54027;50.786;7.058;2023-06-14T03:40:15;7.63;;;6.25;;
67108;SDS011;54027;50.786;7.058;2023-06-14T03:42:41;8.30;;;6.10;;
67108;SDS011;54027;50.786;7.058;2023-06-14T03:45:07;9.68;;;6.43;;
67108;SDS011;54027;50.786;7.058;2023-06-14T03:47:32;9.35;;;6.45;;
67108;SDS011;54027;50.786;7.058;2023-06-14T03:49:58;10.27;;;6.45;;
67108;SDS011;54027;50.786;7.058;2023-06-14T03:52:25;9.55;;;6.55;;
67108;SDS011;54027;50.786;7.058;2023-06-14T03:54:52;11.48;;;6.78;;
67108;SDS011;54027;50.786;7.058;2023-06-14T03:57:18;7.40;;;5.90;;
67108;SDS011;54027;50.786;7.058;2023-06-14T03:59:44;10.93;;;7.05;;
67108;SDS011;54027;50.786;7.058;2023-06-14T04:02:09;9.68;;;6.63;;
67108;SDS011;54027;50.786;7.058;2023-06-14T04:04:35;9.23;;;6.35;;
67108;SDS011;54027;50.786;7.058;2023-06-14T04:07:01;7.47;;;6.07;;
67108;SDS011;54027;50.786;7.058;2023-06-14T04:09:28;10.82;;;7.10;;
67108;SDS011;54027;50.786;7.058;2023-06-14T04:11:54;8.43;;;7.15;;
67108;SDS011;54027;50.786;7.058;2023-06-14T04:14:20;9.50;;;6.47;;
67108;SDS011;54027;50.786;7.058;2023-06-14T04:16:46;8.80;;;7.22;;
67108;SDS011;54027;50.786;7.058;2023-06-14T04:19:12;10.43;;;6.90;;
67108;SDS011;54027;50.786;7.058;2023-06-14T04:21:37;9.85;;;6.53;;
67108;SDS011;54027;50.786;7.058;2023-06-14T04:24:03;12.13;;;7.10;;
67108;SDS011;54027;50.786;7.058;2023-06-14T04:26:29;8.70;;;6.35;;
67108;SDS011;54027;50.786;7.058;2023-06-14T04:28:55;7.90;;;7.10;;
67108;SDS011;54027;50.786;7.058;2023-06-14T04:31:22;13.63;;;6.57;;
67108;SDS011;54027;50.786;7.058;2023-06-14T04:33:50;11.25;;;5.78;;
67108;SDS011;54027;50.786;7.058;2023-06-14T04:36:18;10.43;;;7.28;;
67108;SDS011;54027;50.786;7.058;2023-06-14T04:38:43;11.25;;;7.00;;
67108;SDS011;54027;50.786;7.058;2023-06-14T04:41:11;11.75;;;6.88;;
67108;SDS011;54027;50.786;7.058;2023-06-14T04:43:36;11.55;;;6.68;;
67108;SDS011;54027;50.786;7.058;2023-06-14T04:46:03;7.82;;;6.53;;
67108;SDS011;54027;50.786;7.058;2023-06-14T04:48:30;9.35;;;6.28;;
67108;SDS011;54027;50.786;7.058;2023-06-14T04:50:56;14.43;;;6.50;;
67108;SDS011;54027;50.786;7.058;2023-06-14T04:53:22;10.32;;;6.78;;
67108;SDS011;54027;50.786;7.058;2023-06-14T04:55:48;10.20;;;6.38;;
67108;SDS011;54027;50.786;7.058;2023-06-14T04:58:13;11.27;;;5.78;;
67108;SDS011;54027;50.786;7.058;2023-06-14T05:00:39;11.77;;;7.18;;
67108;SDS011;54027;50.786;7.058;2023-06-14T05:03:04;10.25;;;7.35;;
67108;SDS011;54027;50.786;7.058;2023-06-14T05:05:31;10.07;;;6.93;;
67108;SDS011;54027;50.786;7.058;2023-06-14T05:07:57;17.33;;;6.95;;
67108;SDS011;54027;50.786;7.058;2023-06-14T05:10:22;9.45;;;5.80;;
67108;SDS011;54027;50.786;7.058;2023-06-14T05:12:49;8.35;;;6.00;;
67108;SDS011;54027;50.786;7.058;2023-06-14T05:15:15;10.45;;;5.80;;
67108;SDS011;54027;50.786;7.058;2023-06-14T05:17:41;12.30;;;5.65;;
67108;SDS011;54027;50.786;7.058;2023-06-14T05:20:06;10.13;;;5.70;;
67108;SDS011;54027;50.786;7.058;2023-06-14T05:22:33;9.82;;;5.60;;
67108;SDS011;54027;50.786;7.058;2023-06-14T05:24:58;12.77;;;6.00;;
67108;SDS011;54027;50.786;7.058;2023-06-14T05:27:23;8.85;;;5.28;;
67108;SDS011;54027;50.786;7.058;2023-06-14T05:29:50;10.85;;;4.90;;
67108;SDS011;54027;50.786;7.058;2023-06-14T05:32:15;13.10;;;5.30;;
67108;SDS011;54027;50.786;7.058;2023-06-14T05:34:41;10.55;;;6.05;;
67108;SDS011;54027;50.786;7.058;2023-06-14T05:37:07;7.93;;;5.43;;
67108;SDS011;54027;50.786;7.058;2023-06-14T05:39:32;6.20;;;4.93;;
67108;SDS011;54027;50.786;7.058;2023-06-14T05:41:57;6.72;;;5.10;;
67108;SDS011;54027;50.786;7.058;2023-06-14T05:44:23;13.32;;;5.30;;
67108;SDS011;54027;50.786;7.058;2023-06-14T05:46:48;6.60;;;5.10;;
67108;SDS011;54027;50.786;7.058;2023-06-14T05:49:13;9.10;;;4.78;;
67108;SDS011;54027;50.786;7.058;2023-06-14T05:51:39;8.15;;;4.70;;
67108;SDS011;54027;50.786;7.058;2023-06-14T05:54:04;10.68;;;4.80;;
67108;SDS011;54027;50.786;7.058;2023-06-14T05:56:30;7.22;;;4.85;;
67108;SDS011;54027;50.786;7.058;2023-06-14T05:58:55;7.65;;;4.50;;
67108;SDS011;54027;50.786;7.058;2023-06-14T06:01:20;7.55;;;4.63;;
67108;SDS011;54027;50.786;7.058;2023-06-14T06:03:46;6.78;;;4.47;;
67108;SDS011;54027;50.786;7.058;2023-06-14T06:06:12;6.00;;;4.32;;
67108;SDS011;54027;50.786;7.058;2023-06-14T06:08:37;7.85;;;4.60;;
67108;SDS011;54027;50.786;7.058;2023-06-14T06:11:03;12.35;;;4.63;;
67108;SDS011;54027;50.786;7.058;2023-06-14T06:13:28;10.98;;;4.68;;
67108;SDS011;54027;50.786;7.058;2023-06-14T06:15:54;12.43;;;4.40;;
67108;SDS011;54027;50.786;7.058;2023-06-14T06:18:19;16.23;;;4.90;;
67108;SDS011;54027;50.786;7.058;2023-06-14T06:20:44;8.40;;;4.32;;
67108;SDS011;54027;50.786;7.058;2023-06-14T06:23:10;7.55;;;4.07;;
67108;SDS011;54027;50.786;7.058;2023-06-14T06:25:35;10.77;;;3.65;;
67108;SDS011;54027;50.786;7.058;2023-06-14T06:28:01;15.15;;;3.78;;
67108;SDS011;54027;50.786;7.058;2023-06-14T06:30:26;5.13;;;3.70;;
67108;SDS011;54027;50.786;7.058;2023-06-14T06:32:51;10.90;;;4.32;;
67108;SDS011;54027;50.786;7.058;2023-06-14T06:35:18;7.72;;;3.67;;
67108;SDS011;54027;50.786;7.058;2023-06-14T06:37:43;4.90;;;3.97;;
67108;SDS011;54027;50.786;7.058;2023-06-14T06:40:08;6.88;;;3.50;;
67108;SDS011;54027;50.786;7.058;2023-06-14T06:42:35;8.70;;;3.80;;
67108;SDS011;54027;50.786;7.058;2023-06-14T06:45:01;6.50;;;3.70;;
67108;SDS011;54027;50.786;7.058;2023-06-14T06:47:26;8.27;;;3.55;;
67108;SDS011;54027;50.786;7.058;2023-06-14T06:49:52;6.20;;;3.53;;
67108;SDS011;54027;50.786;7.058;2023-06-14T06:52:18;6.82;;;3.75;;
67108;SDS011;54027;50.786;7.058;2023-06-14T06:54:43;6.95;;;3.17;;
67108;SDS011;54027;50.786;7.058;2023-06-14T06:57:08;6.72;;;3.42;;
67108;SDS011;54027;50.786;7.058;2023-06-14T06:59:34;8.90;;;3.70;;
67108;SDS011;54027;50.786;7.058;2023-06-14T07:02:00;5.72;;;3.65;;
67108;SDS011;54027;50.786;7.058;2023-06-14T07:04:25;4.97;;;3.40;;
67108;SDS011;54027;50.786;7.058;2023-06-14T07:06:50;4.93;;;3.30;;
67108;SDS011;54027;50.786;7.058;2023-06-14T07:09:16;6.00;;;3.03;;
67108;SDS011;54027;50.786;7.058;2023-06-14T07:11:42;9.95;;;3.78;;
67108;SDS011;54027;50.786;7.058;2023-06-14T07:14:08;8.90;;;3.80;;
67108;SDS011;54027;50.786;7.058;2023-06-14T07:16:34;7.05;;;3.20;;
67108;SDS011;54027;50.786;7.058;2023-06-14T07:19:01;6.63;;;3.00;;
67108;SDS011;54027;50.786;7.058;2023-06-14T07:21:27;4.72;;;3.08;;
67108;SDS011;54027;50.786;7.058;2023-06-14T07:23:53;5.80;;;3.47;;
67108;SDS011;54027;50.786;7.058;2023-06-14T07:26:19;7.22;;;3.75;;
67108;SDS011;54027;50.786;7.058;2023-06-14T07:28:45;6.88;;;3.00;;
67108;SDS011;54027;50.786;7.058;2023-06-14T07:31:11;4.40;;;3.30;;
67108;SDS011;54027;50.786;7.058;2023-06-14T07:33:37;5.10;;;2.85;;
67108;SDS011;54027;50.786;7.058;2023-06-14T07:36:03;6.05;;;3.10;;
67108;SDS011;54027;50.786;7.058;2023-06-14T07:38:29;5.68;;;3.13;;
67108;SDS011;54027;50.786;7.058;2023-06-14T07:40:54;5.88;;;3.13;;
67108;SDS011;54027;50.786;7.058;2023-06-14T07:43:19;5.18;;;2.80;;
67108;SDS011;54027;50.786;7.058;2023-06-14T07:45:45;4.93;;;3.33;;
67108;SDS011;54027;50.786;7.058;2023-06-14T07:48:10;3.40;;;3.00;;
67108;SDS011;54027;50.786;7.058;2023-06-14T07:50:36;7.57;;;3.35;;
67108;SDS011;54027;50.786;7.058;2023-06-14T07:53:01;7.28;;;3.30;;
67108;SDS011;54027;50.786;7.058;2023-06-14T07:55:27;8.23;;;2.97;;
67108;SDS011;54027;50.786;7.058;2023-06-14T07:57:53;6.28;;;3.00;;
67108;SDS011;54027;50.786;7.058;2023-06-14T08:00:18;7.88;;;3.25;;
67108;SDS011;54027;50.786;7.058;2023-06-14T08:02:45;5.28;;;2.88;;
67108;SDS011;54027;50.786;7.058;2023-06-14T08:05:10;3.72;;;2.25;;
67108;SDS011;54027;50.786;7.058;2023-06-14T08:07:37;5.43;;;2.70;;
67108;SDS011;54027;50.786;7.058;2023-06-14T08:10:03;12.52;;;3.33;;
67108;SDS011;54027;50.786;7.058;2023-06-14T08:12:29;5.75;;;2.50;;
67108;SDS011;54027;50.786;7.058;2023-06-14T08:14:54;5.00;;;2.78;;
67108;SDS011;54027;50.786;7.058;2023-06-14T08:17:20;5.32;;;2.22;;
67108;SDS011;54027;50.786;7.058;2023-06-14T08:19:45;7.10;;;2.25;;
67108;SDS011;54027;50.786;7.058;2023-06-14T08:22:10;3.72;;;1.70;;
67108;SDS011;54027;50.786;7.058;2023-06-14T08:24:37;5.75;;;1.70;;
67108;SDS011;54027;50.786;7.058;2023-06-14T08:27:02;4.15;;;1.98;;
67108;SDS011;54027;50.786;7.058;2023-06-14T08:29:28;3.22;;;1.50;;
67108;SDS011;54027;50.786;7.058;2023-06-14T08:31:55;4.28;;;1.75;;
67108;SDS011;54027;50.786;7.058;2023-06-14T08:34:21;5.07;;;1.95;;
67108;SDS011;54027;50.786;7.058;2023-06-14T08:36:48;3.90;;;1.60;;
67108;SDS011;54027;50.786;7.058;2023-06-14T08:39:15;2.92;;;1.90;;
67108;SDS011;54027;50.786;7.058;2023-06-14T08:41:41;3.88;;;1.40;;
67108;SDS011;54027;50.786;7.058;2023-06-14T08:44:10;6.05;;;1.40;;
67108;SDS011;54027;50.786;7.058;2023-06-14T08:46:36;3.78;;;1.50;;
67108;SDS011;54027;50.786;7.058;2023-06-14T08:49:02;3.33;;;1.90;;
67108;SDS011;54027;50.786;7.058;2023-06-14T08:51:31;3.85;;;1.65;;
67108;SDS011;54027;50.786;7.058;2023-06-14T08:54:01;5.72;;;2.05;;
67108;SDS011;54027;50.786;7.058;2023-06-14T08:56:28;5.70;;;1.58;;
67108;SDS011;54027;50.786;7.058;2023-06-14T08:58:55;6.20;;;2.00;;
67108;SDS011;54027;50.786;7.058;2023-06-14T09:01:22;2.65;;;1.35;;
67108;SDS011;54027;50.786;7.058;2023-06-14T09:03:49;7.43;;;1.90;;
67108;SDS011;54027;50.786;7.058;2023-06-14T09:06:15;4.05;;;1.90;;
67108;SDS011;54027;50.786;7.058;2023-06-14T09:08:45;3.42;;;2.13;;
67108;SDS011;54027;50.786;7.058;2023-06-14T09:11:13;3.42;;;1.90;;
67108;SDS011;54027;50.786;7.058;2023-06-14T09:13:40;4.15;;;1.63;;
67108;SDS011;54027;50.786;7.058;2023-06-14T09:16:06;2.00;;;1.67;;
67108;SDS011;54027;50.786;7.058;2023-06-14T09:21:07;3.92;;;1.67;;
67108;SDS011;54027;50.786;7.058;2023-06-14T09:23:33;4.38;;;1.90;;
67108;SDS011;54027;50.786;7.058;2023-06-14T09:26:08;5.00;;;2.17;;
67108;SDS011;54027;50.786;7.058;2023-06-14T09:28:34;2.17;;;1.40;;
67108;SDS011;54027;50.786;7.058;2023-06-14T09:31:00;2.38;;;1.45;;
67108;SDS011;54027;50.786;7.058;2023-06-14T09:33:26;2.95;;;1.80;;
67108;SDS011;54027;50.786;7.058;2023-06-14T09:35:52;3.15;;;2.28;;
67108;SDS011;54027;50.786;7.058;2023-06-14T09:38:19;5.70;;;2.00;;
67108;SDS011;54027;50.786;7.058;2023-06-14T09:40:45;2.40;;;1.80;;
67108;SDS011;54027;50.786;7.058;2023-06-14T09:43:11;5.97;;;2.00;;
67108;SDS011;54027;50.786;7.058;2023-06-14T09:45:36;2.88;;;1.80;;
67108;SDS011;54027;50.786;7.058;2023-06-14T09:48:05;4.50;;;1.73;;
67108;SDS011;54027;50.786;7.058;2023-06-14T09:50:32;2.88;;;1.88;;
67108;SDS011;54027;50.786;7.058;2023-06-14T09:52:59;7.50;;;2.45;;
67108;SDS011;54027;50.786;7.058;2023-06-14T09:55:36;2.80;;;1.75;;
67108;SDS011;54027;50.786;7.058;2023-06-14T09:58:04;3.63;;;1.92;;
67108;SDS011;54027;50.786;7.058;2023-06-14T10:00:31;2.55;;;1.50;;
67108;SDS011;54027;50.786;7.058;2023-06-14T10:03:00;4.97;;;1.75;;
67108;SDS011;54027;50.786;7.058;2023-06-14T10:05:28;3.80;;;1.70;;
67108;SDS011;54027;50.786;7.058;2023-06-14T10:08:03;2.90;;;1.80;;
67108;SDS011;54027;50.786;7.058;2023-06-14T10:10:30;4.00;;;1.70;;
67108;SDS011;54027;50.786;7.058;2023-06-14T10:12:56;6.18;;;1.60;;
67108;SDS011;54027;50.786;7.058;2023-06-14T10:18:17;2.30;;;1.75;;
67108;SDS011;54027;50.786;7.058;2023-06-14T10:20:53;5.70;;;2.03;;
67108;SDS011;54027;50.786;7.058;2023-06-14T10:23:30;4.53;;;2.03;;
67108;SDS011;54027;50.786;7.058;2023-06-14T10:26:00;3.03;;;1.83;;
67108;SDS011;54027;50.786;7.058;2023-06-14T10:28:26;2.38;;;1.48;;
67108;SDS011;54027;50.786;7.058;2023-06-14T10:31:10;3.35;;;1.85;;
67108;SDS011;54027;50.786;7.058;2023-06-14T10:33:48;2.33;;;1.70;;
67108;SDS011;54027;50.786;7.058;2023-06-14T10:46:47;2.97;;;1.80;;
67108;SDS011;54027;50.786;7.058;2023-06-14T10:49:18;4.97;;;2.00;;
67108;SDS011;54027;50.786;7.058;2023-06-14T10:51:45;2.65;;;1.60;;
67108;SDS011;54027;50.786;7.058;2023-06-14T10:54:14;4.15;;;1.92;;
67108;SDS011;54027;50.786;7.058;2023-06-14T10:56:46;2.85;;;1.85;;
67108;SDS011;54027;50.786;7.058;2023-06-14T10:59:13;4.65;;;1.80;;
67108;SDS011;54027;50.786;7.058;2023-06-14T11:04:20;2.78;;;2.00;;
67108;SDS011;54027;50.786;7.058;2023-06-14T11:06:49;4.55;;;1.83;;
67108;SDS011;54027;50.786;7.058;2023-06-14T11:11:48;3.75;;;1.60;;
67108;SDS011;54027;50.786;7.058;2023-06-14T11:14:15;3.05;;;1.73;;
67108;SDS011;54027;50.786;7.058;2023-06-14T11:16:41;3.17;;;1.65;;
67108;SDS011;54027;50.786;7.058;2023-06-14T11:19:06;2.83;;;1.95;;
67108;SDS011;54027;50.786;7.058;2023-06-14T11:21:32;3.40;;;1.63;;
67108;SDS011;54027;50.786;7.058;2023-06-14T11:23:58;2.15;;;1.55;;
67108;SDS011;54027;50.786;7.058;2023-06-14T11:26:27;3.20;;;1.83;;
67108;SDS011;54027;50.786;7.058;2023-06-14T11:28:58;2.95;;;1.50;;
67108;SDS011;54027;50.786;7.058;2023-06-14T11:31:25;2.75;;;1.73;;
67108;SDS011;54027;50.786;7.058;2023-06-14T11:33:53;5.47;;;1.83;;
67108;SDS011;54027;50.786;7.058;2023-06-14T11:36:18;2.28;;;1.48;;
67108;SDS011;54027;50.786;7.058;2023-06-14T11:38:44;4.05;;;1.70;;
67108;SDS011;54027;50.786;7.058;2023-06-14T11:41:10;3.35;;;1.95;;
67108;SDS011;54027;50.786;7.058;2023-06-14T11:43:35;2.45;;;1.70;;
67108;SDS011;54027;50.786;7.058;2023-06-14T11:46:01;3.80;;;1.60;;
67108;SDS011;54027;50.786;7.058;2023-06-14T11:48:40;2.40;;;1.52;;
67108;SDS011;54027;50.786;7.058;2023-06-14T11:51:08;4.20;;;1.80;;
67108;SDS011;54027;50.786;7.058;2023-06-14T11:53:34;4.15;;;1.90;;
67108;SDS011;54027;50.786;7.058;2023-06-14T11:56:00;5.07;;;2.03;;
67108;SDS011;54027;50.786;7.058;2023-06-14T11:58:26;2.80;;;1.90;;
67108;SDS011;54027;50.786;7.058;2023-06-14T12:00:53;3.05;;;1.50;;
67108;SDS011;54027;50.786;7.058;2023-06-14T12:03:23;2.83;;;1.65;;
67108;SDS011;54027;50.786;7.058;2023-06-14T12:06:04;1.90;;;1.25;;
67108;SDS011;54027;50.786;7.058;2023-06-14T12:08:35;3.88;;;1.58;;
67108;SDS011;54027;50.786;7.058;2023-06-14T12:11:10;6.57;;;1.20;;
67108;SDS011;54027;50.786;7.058;2023-06-14T12:13:38;1.90;;;1.30;;
67108;SDS011;54027;50.786;7.058;2023-06-14T12:16:06;4.65;;;1.20;;
67108;SDS011;54027;50.786;7.058;2023-06-14T12:18:36;3.45;;;1.38;;
67108;SDS011;54027;50.786;7.058;2023-06-14T12:21:03;2.47;;;1.27;;
67108;SDS011;54027;50.786;7.058;2023-06-14T12:23:47;1.48;;;1.20;;
67108;SDS011;54027;50.786;7.058;2023-06-14T12:26:17;3.33;;;1.15;;
67108;SDS011;54027;50.786;7.058;2023-06-14T12:28:44;1.92;;;1.10;;
67108;SDS011;54027;50.786;7.058;2023-06-14T12:31:11;4.15;;;1.10;;
67108;SDS011;54027;50.786;7.058;2023-06-14T12:33:38;2.20;;;1.08;;
67108;SDS011;54027;50.786;7.058;2023-06-14T12:36:04;1.65;;;1.25;;
67108;SDS011;54027;50.786;7.058;2023-06-14T12:38:31;3.05;;;1.23;;
67108;SDS011;54027;50.786;7.058;2023-06-14T12:40:57;1.20;;;1.10;;
67108;SDS011;54027;50.786;7.058;2023-06-14T12:43:23;2.03;;;1.30;;
67108;SDS011;54027;50.786;7.058;2023-06-14T12:45:48;2.35;;;1.30;;
67108;SDS011;54027;50.786;7.058;2023-06-14T12:48:13;2.35;;;1.00;;
67108;SDS011;54027;50.786;7.058;2023-06-14T12:50:40;1.92;;;0.95;;
67108;SDS011;54027;50.786;7.058;2023-06-14T12:53:05;5.50;;;1.33;;
67108;SDS011;54027;50.786;7.058;2023-06-14T12:55:31;1.88;;;1.08;;
67108;SDS011;54027;50.786;7.058;2023-06-14T12:57:57;1.48;;;1.00;;
67108;SDS011;54027;50.786;7.058;2023-06-14T13:00:23;2.13;;;1.10;;
67108;SDS011;54027;50.786;7.058;2023-06-14T13:02:48;2.63;;;1.10;;
67108;SDS011;54027;50.786;7.058;2023-06-14T13:05:14;4.43;;;1.42;;
67108;SDS011;54027;50.786;7.058;2023-06-14T13:07:39;1.42;;;1.13;;
67108;SDS011;54027;50.786;7.058;2023-06-14T13:10:04;2.35;;;0.90;;
67108;SDS011;54027;50.786;7.058;2023-06-14T13:12:30;1.88;;;1.23;;
67108;SDS011;54027;50.786;7.058;2023-06-14T13:14:55;1.40;;;1.10;;
67108;SDS011;54027;50.786;7.058;2023-06-14T13:17:21;2.85;;;1.30;;
67108;SDS011;54027;50.786;7.058;2023-06-14T13:19:46;2.33;;;1.45;;
67108;SDS011;54027;50.786;7.058;2023-06-14T13:22:11;5.57;;;1.40;;
67108;SDS011;54027;50.786;7.058;2023-06-14T13:24:37;2.30;;;1.38;;
67108;SDS011;54027;50.786;7.058;2023-06-14T13:27:02;2.67;;;1.33;;
67108;SDS011;54027;50.786;7.058;2023-06-14T13:29:28;3.88;;;1.80;;
67108;SDS011;54027;50.786;7.058;2023-06-14T13:31:53;2.72;;;1.50;;
67108;SDS011;54027;50.786;7.058;2023-06-14T13:34:19;3.35;;;1.60;;
67108;SDS011;54027;50.786;7.058;2023-06-14T13:36:45;2.00;;;1.55;;
67108;SDS011;54027;50.786;7.058;2023-06-14T13:39:10;10.23;;;2.05;;
67108;SDS011;54027;50.786;7.058;2023-06-14T13:41:36;3.47;;;1.63;;
67108;SDS011;54027;50.786;7.058;2023-06-14T13:44:01;2.10;;;1.60;;
67108;SDS011;54027;50.786;7.058;2023-06-14T13:46:29;2.80;;;1.80;;
67108;SDS011;54027;50.786;7.058;2023-06-14T13:48:54;6.25;;;2.00;;
67108;SDS011;54027;50.786;7.058;2023-06-14T13:51:20;4.22;;;1.65;;
67108;SDS011;54027;50.786;7.058;2023-06-14T13:53:46;1.40;;;1.30;;
67108;SDS011;54027;50.786;7.058;2023-06-14T13:56:13;2.03;;;1.80;;
67108;SDS011;54027;50.786;7.058;2023-06-14T13:58:38;1.95;;;1.40;;
67108;SDS011;54027;50.786;7.058;2023-06-14T14:01:04;3.25;;;1.55;;
67108;SDS011;54027;50.786;7.058;2023-06-14T14:03:30;3.95;;;1.85;;
67108;SDS011;54027;50.786;7.058;2023-06-14T14:05:55;1.90;;;1.60;;
67108;SDS011;54027;50.786;7.058;2023-06-14T14:08:21;4.10;;;1.80;;
67108;SDS011;54027;50.786;7.058;2023-06-14T14:10:46;5.53;;;1.55;;
67108;SDS011;54027;50.786;7.058;2023-06-14T14:13:12;4.53;;;1.50;;
67108;SDS011;54027;50.786;7.058;2023-06-14T14:15:37;4.05;;;1.55;;
67108;SDS011;54027;50.786;7.058;2023-06-14T14:18:03;4.30;;;1.58;;
67108;SDS011;54027;50.786;7.058;2023-06-14T14:20:30;1.98;;;1.50;;
67108;SDS011;54027;50.786;7.058;2023-06-14T14:22:55;1.95;;;1.35;;
67108;SDS011;54027;50.786;7.058;2023-06-14T14:25:21;4.43;;;1.80;;
67108;SDS011;54027;50.786;7.058;2023-06-14T14:27:46;6.85;;;1.85;;
67108;SDS011;54027;50.786;7.058;2023-06-14T14:30:12;2.70;;;1.60;;
67108;SDS011;54027;50.786;7.058;2023-06-14T14:32:39;3.45;;;1.60;;
67108;SDS011;54027;50.786;7.058;2023-06-14T14:35:05;4.40;;;1.55;;
67108;SDS011;54027;50.786;7.058;2023-06-14T14:37:31;3.33;;;1.60;;
67108;SDS011;54027;50.786;7.058;2023-06-14T14:39:56;3.47;;;1.77;;
67108;SDS011;54027;50.786;7.058;2023-06-14T14:42:22;2.55;;;1.75;;
67108;SDS011;54027;50.786;7.058;2023-06-14T14:44:47;3.25;;;1.70;;
67108;SDS011;54027;50.786;7.058;2023-06-14T14:47:12;2.33;;;1.50;;
67108;SDS011;54027;50.786;7.058;2023-06-14T14:49:38;2.25;;;1.20;;
67108;SDS011;54027;50.786;7.058;2023-06-14T14:52:03;3.35;;;1.80;;
67108;SDS011;54027;50.786;7.058;2023-06-14T14:54:29;1.63;;;1.50;;
67108;SDS011;54027;50.786;7.058;2023-06-14T14:56:54;5.22;;;1.75;;
67108;SDS011;54027;50.786;7.058;2023-06-14T14:59:20;3.03;;;1.73;;
67108;SDS011;54027;50.786;7.058;2023-06-14T15:01:47;6.90;;;2.03;;
67108;SDS011;54027;50.786;7.058;2023-06-14T15:04:12;3.08;;;1.67;;
67108;SDS011;54027;50.786;7.058;2023-06-14T15:06:38;3.75;;;1.60;;
67108;SDS011;54027;50.786;7.058;2023-06-14T15:09:05;3.65;;;1.80;;